createdAt,value
2023-05-17T00:02:01.167Z,100738.28
2023-05-17T00:04:29.766Z,100730.72
2023-05-17T00:06:58.194Z,100720.81
2023-05-17T00:09:28.055Z,100707.53
2023-05-17T00:11:56.520Z,100726.88
2023-05-17T00:14:25.237Z,100728.53
2023-05-17T00:16:53.884Z,100719.13
2023-05-17T00:19:23.477Z,100733.75
2023-05-17T00:21:51.946Z,100731.75
2023-05-17T00:24:20.346Z,100719.13
2023-05-17T00:26:50.168Z,100726.19
2023-05-17T00:29:18.638Z,100722.00
2023-05-17T00:31:47.047Z,100711.56
2023-05-17T00:34:15.552Z,100716.94
2023-05-17T00:36:44.009Z,100701.00
2023-05-17T00:39:13.668Z,100710.91
2023-05-17T00:41:42.076Z,100711.06
2023-05-17T00:44:13.127Z,100721.66
2023-05-17T00:46:42.000Z,100722.03
2023-05-17T00:49:10.510Z,100704.88
2023-05-17T00:51:39.481Z,100706.19
2023-05-17T00:54:08.315Z,100691.91
2023-05-17T00:56:37.556Z,100705.06
2023-05-17T00:59:08.028Z,100698.47
2023-05-17T01:01:42.690Z,100701.53
2023-05-17T01:04:12.262Z,100700.84
2023-05-17T01:06:42.053Z,100689.59
2023-05-17T01:09:11.572Z,100695.81
2023-05-17T01:11:52.264Z,100698.34
2023-05-17T01:14:35.006Z,100695.97
2023-05-17T01:17:08.384Z,100713.28
2023-05-17T01:19:53.736Z,100700.19
2023-05-17T01:22:36.450Z,100700.84
2023-05-17T01:25:28.480Z,100705.56
2023-05-17T01:28:03.533Z,100709.59
2023-05-17T01:30:34.072Z,100700.53
2023-05-17T01:33:04.944Z,100695.97
2023-05-17T01:35:33.459Z,100703.38
2023-05-17T01:38:01.837Z,100701.38
2023-05-17T01:40:31.863Z,100707.75
2023-05-17T01:43:11.405Z,100687.78
2023-05-17T01:45:45.592Z,100668.28
2023-05-17T01:48:22.843Z,100699.19
2023-05-17T01:50:58.496Z,100699.69
2023-05-17T01:53:32.228Z,100700.34
2023-05-17T01:56:06.080Z,100701.19
2023-05-17T01:58:42.745Z,100658.53
2023-05-17T02:01:12.566Z,100710.63
2023-05-17T02:03:41.174Z,100699.38
2023-05-17T02:06:09.876Z,100705.59
2023-05-17T02:08:38.396Z,100700.53
2023-05-17T02:11:07.016Z,100700.03
2023-05-17T02:13:36.856Z,100706.25
2023-05-17T02:16:06.631Z,100703.56
2023-05-17T02:18:36.046Z,100702.91
2023-05-17T02:21:04.903Z,100699.19
2023-05-17T02:23:33.418Z,100706.25
2023-05-17T02:26:01.814Z,100699.69
2023-05-17T02:28:30.208Z,100705.25
2023-05-17T02:31:00.135Z,100708.44
2023-05-17T02:33:28.824Z,100704.38
2023-05-17T02:35:58.167Z,100701.53
2023-05-17T02:38:26.573Z,100707.59
2023-05-17T02:40:55.423Z,100690.09
2023-05-17T02:43:24.210Z,100695.31
2023-05-17T02:45:52.660Z,100699.38
2023-05-17T02:48:22.575Z,100693.81
2023-05-17T02:50:51.296Z,100695.66
2023-05-17T02:53:19.946Z,100680.72
2023-05-17T02:55:48.809Z,100693.47
2023-05-17T02:58:18.362Z,100693.63
2023-05-17T03:00:47.417Z,100685.75
2023-05-17T03:03:17.113Z,100680.03
2023-05-17T03:05:47.142Z,100682.88
2023-05-17T03:08:15.727Z,100677.50
2023-05-17T03:10:44.140Z,100671.97
2023-05-17T03:13:13.021Z,100677.00
2023-05-17T03:15:41.976Z,100670.63
2023-05-17T03:18:10.564Z,100678.34
2023-05-17T03:20:41.120Z,100678.34
2023-05-17T03:23:11.116Z,100685.41
2023-05-17T03:25:50.090Z,100678.69
2023-05-17T03:28:18.824Z,100683.88
2023-05-17T03:30:47.637Z,100685.72
2023-05-17T03:33:18.102Z,100688.75
2023-05-17T03:35:47.175Z,100687.91
2023-05-17T03:38:17.136Z,100687.75
2023-05-17T03:40:45.819Z,100684.41
2023-05-17T03:43:14.237Z,100685.22
2023-05-17T03:45:42.832Z,100690.78
2023-05-17T03:48:11.297Z,100681.38
2023-05-17T03:50:41.158Z,100699.34
2023-05-17T03:53:11.223Z,100653.09
2023-05-17T03:55:41.806Z,100680.00
2023-05-17T03:58:10.245Z,100688.75
2023-05-17T04:00:38.741Z,100685.22
2023-05-17T04:03:14.050Z,100695.00
2023-05-17T04:05:42.753Z,100701.88
2023-05-17T04:08:11.162Z,100700.50
2023-05-17T04:10:42.554Z,100696.16
2023-05-17T04:13:11.337Z,100703.53
2023-05-17T04:15:40.626Z,100707.22
2023-05-17T04:18:09.963Z,100703.84
2023-05-17T04:20:38.476Z,100710.22
2023-05-17T04:23:06.945Z,100712.91
2023-05-17T04:25:37.014Z,100711.91
2023-05-17T04:28:07.898Z,100716.28
2023-05-17T04:30:36.901Z,100720.97
2023-05-17T04:33:06.169Z,100722.00
2023-05-17T04:35:34.741Z,100723.19
2023-05-17T04:38:03.515Z,100713.59
2023-05-17T04:40:32.322Z,100721.66
2023-05-17T04:43:00.935Z,100718.28
2023-05-17T04:45:33.530Z,100719.13
2023-05-17T04:48:02.794Z,100713.78
2023-05-17T04:50:32.269Z,100718.28
2023-05-17T04:53:00.730Z,100723.50
2023-05-17T04:55:31.249Z,100721.66
2023-05-17T04:58:00.285Z,100725.03
2023-05-17T05:00:28.877Z,100728.03
2023-05-17T05:03:06.094Z,100727.03
2023-05-17T05:05:35.929Z,100724.69
2023-05-17T05:08:06.953Z,100725.03
2023-05-17T05:10:35.501Z,100722.34
2023-05-17T05:13:04.061Z,100723.72
2023-05-17T05:15:33.678Z,100720.34
2023-05-17T05:18:02.210Z,100723.72
2023-05-17T05:20:33.712Z,100729.25
2023-05-17T05:23:06.175Z,100716.84
2023-05-17T05:25:36.125Z,100722.53
2023-05-17T05:28:04.558Z,100721.19
2023-05-17T05:30:34.084Z,100728.94
2023-05-17T05:33:02.591Z,100733.97
2023-05-17T05:35:32.559Z,100726.22
2023-05-17T05:38:01.283Z,100733.09
2023-05-17T05:40:30.106Z,100730.41
2023-05-17T05:42:58.908Z,100716.94
2023-05-17T05:45:27.319Z,100744.03
2023-05-17T05:47:59.981Z,100738.44
2023-05-17T05:50:29.177Z,100751.91
2023-05-17T05:53:17.218Z,100742.47
2023-05-17T05:55:50.777Z,100747.34
2023-05-17T05:58:19.860Z,100751.16
2023-05-17T06:00:49.166Z,100741.78
2023-05-17T06:03:17.791Z,100739.41
2023-05-17T06:05:46.331Z,100746.03
2023-05-17T06:08:16.303Z,100743.00
2023-05-17T06:10:47.102Z,100746.97
2023-05-17T06:13:15.799Z,100737.84
2023-05-17T06:15:44.203Z,100740.75
2023-05-17T06:18:12.764Z,100743.56
2023-05-17T06:20:41.201Z,100737.78
2023-05-17T06:23:09.638Z,100744.94
2023-05-17T06:25:39.683Z,100731.69
2023-05-17T06:28:09.396Z,100727.78
2023-05-17T06:30:37.854Z,100735.78
2023-05-17T06:33:06.676Z,100745.66
2023-05-17T06:35:51.738Z,100737.59
2023-05-17T06:38:23.724Z,100732.03
2023-05-17T06:40:55.398Z,100726.19
2023-05-17T06:43:24.138Z,100726.41
2023-05-17T06:45:52.749Z,100734.78
2023-05-17T06:48:21.290Z,100740.78
2023-05-17T06:50:49.796Z,100727.63
2023-05-17T06:53:18.290Z,100757.47
2023-05-17T06:55:46.680Z,100750.34
2023-05-17T06:58:16.597Z,100748.47
2023-05-17T07:00:45.049Z,100747.56
2023-05-17T07:03:13.832Z,100760.44
2023-05-17T07:05:42.339Z,100749.50
2023-05-17T07:08:11.716Z,100759.16
2023-05-17T07:10:40.188Z,100758.53
2023-05-17T07:13:08.731Z,100757.97
2023-05-17T07:15:39.236Z,100747.09
2023-05-17T07:18:07.795Z,100759.47
2023-05-17T07:20:36.266Z,100763.47
2023-05-17T07:23:04.693Z,100767.66
2023-05-17T07:25:33.145Z,100771.38
2023-05-17T07:28:01.553Z,100770.59
2023-05-17T07:30:30.145Z,100769.69
2023-05-17T07:33:00.080Z,100776.72
2023-05-17T07:35:28.771Z,100772.84
2023-05-17T07:37:57.451Z,100772.78
2023-05-17T07:40:25.990Z,100766.78
2023-05-17T07:42:54.479Z,100773.47
2023-05-17T07:45:22.981Z,100773.53
2023-05-17T07:47:51.596Z,100762.84
2023-05-17T07:50:21.534Z,100773.41
2023-05-17T07:52:50.056Z,100776.22
2023-05-17T07:55:19.918Z,100767.84
2023-05-17T07:57:48.685Z,100760.25
2023-05-17T08:00:19.445Z,100767.59
2023-05-17T08:02:47.944Z,100770.22
2023-05-17T08:05:16.569Z,100775.97
2023-05-17T08:07:46.780Z,100767.94
2023-05-17T08:10:15.250Z,100773.69
2023-05-17T08:12:43.752Z,100771.81
2023-05-17T08:15:12.379Z,100762.81
2023-05-17T08:17:41.152Z,100780.16
2023-05-17T08:20:11.080Z,100758.22
2023-05-17T08:22:39.642Z,100763.31
2023-05-17T08:25:10.143Z,100768.53
2023-05-17T08:27:39.815Z,100766.88
2023-05-17T08:30:12.094Z,100768.78
2023-05-17T08:32:45.279Z,100773.19
2023-05-17T08:35:13.942Z,100765.66
2023-05-17T08:37:43.105Z,100757.34
2023-05-17T08:40:14.999Z,100768.41
2023-05-17T08:42:44.604Z,100765.69
2023-05-17T08:45:14.553Z,100766.09
2023-05-17T08:47:44.903Z,100757.97
2023-05-17T08:50:14.469Z,100758.59
2023-05-17T08:52:47.432Z,100752.75
2023-05-17T08:55:18.465Z,100765.66
2023-05-17T08:57:47.845Z,100768.16
2023-05-17T09:00:21.199Z,100723.50
2023-05-17T09:02:52.527Z,100755.66
2023-05-17T09:05:21.498Z,100783.66
2023-05-17T09:07:50.885Z,100760.66
2023-05-17T09:10:22.088Z,100764.63
2023-05-17T09:12:50.875Z,100778.41
2023-05-17T09:15:21.056Z,100765.59
2023-05-17T09:17:53.808Z,100770.84
2023-05-17T09:20:26.123Z,100770.00
2023-05-17T09:22:54.753Z,100769.81
2023-05-17T09:25:25.841Z,100778.78
2023-05-17T09:27:54.443Z,100766.44
2023-05-17T09:30:29.511Z,100780.44
2023-05-17T09:32:59.196Z,100776.91
2023-05-17T09:35:30.973Z,100765.56
2023-05-17T09:38:09.985Z,100774.09
2023-05-17T09:40:44.332Z,100777.63
2023-05-17T09:43:13.880Z,100775.91
2023-05-17T09:45:42.428Z,100772.97
2023-05-17T09:48:15.509Z,100783.41
2023-05-17T09:50:48.033Z,100782.94
2023-05-17T09:53:27.238Z,100770.81
2023-05-17T09:55:58.706Z,100779.75
2023-05-17T09:58:29.008Z,100786.22
2023-05-17T10:01:02.053Z,100785.75
2023-05-17T10:03:33.499Z,100785.50
2023-05-17T10:06:04.057Z,100781.50
2023-05-17T10:08:33.979Z,100784.34
2023-05-17T10:11:09.637Z,100779.72
2023-05-17T10:13:45.574Z,100767.66
2023-05-17T10:16:14.817Z,100780.09
2023-05-17T10:18:43.718Z,100779.84
2023-05-17T10:21:12.932Z,100791.97
2023-05-17T10:23:44.350Z,100783.38
2023-05-17T10:26:14.435Z,100777.38
2023-05-17T10:28:44.178Z,100780.78
2023-05-17T10:31:13.929Z,100785.63
2023-05-17T10:33:44.584Z,100796.53
2023-05-17T10:36:18.585Z,100800.25
2023-05-17T10:38:47.487Z,100789.63
2023-05-17T10:41:19.623Z,100794.91
2023-05-17T10:43:49.988Z,100789.22
2023-05-17T10:46:21.929Z,100801.19
2023-05-17T10:48:52.233Z,100797.91
2023-05-17T10:51:25.742Z,100774.03
2023-05-17T10:54:09.140Z,100796.97
2023-05-17T10:56:42.261Z,100797.06
2023-05-17T10:59:22.068Z,100783.94
2023-05-17T11:01:56.171Z,100787.31
2023-05-17T11:04:26.419Z,100774.00
2023-05-17T11:06:57.363Z,100786.50
2023-05-17T11:09:26.325Z,100773.22
2023-05-17T11:12:10.149Z,100771.94
2023-05-17T11:14:48.241Z,100772.03
2023-05-17T11:17:18.966Z,100782.16
2023-05-17T11:20:11.600Z,100793.91
2023-05-17T11:22:42.949Z,100788.75
2023-05-17T11:25:13.369Z,100741.84
2023-05-17T11:27:47.470Z,100786.03
2023-05-17T11:30:20.919Z,100779.03
2023-05-17T11:32:51.673Z,100772.66
2023-05-17T11:35:24.872Z,100777.75
2023-05-17T11:37:54.779Z,100772.25
2023-05-17T11:40:28.386Z,100781.47
2023-05-17T11:43:19.834Z,100785.84
2023-05-17T11:45:52.799Z,100783.38
2023-05-17T11:48:23.592Z,100778.59
2023-05-17T11:50:55.364Z,100777.31
2023-05-17T11:53:24.345Z,100772.72
2023-05-17T11:55:53.952Z,100767.91
2023-05-17T11:58:27.220Z,100773.34
2023-05-17T12:00:57.843Z,100784.44
2023-05-17T12:03:27.860Z,100773.97
2023-05-17T12:06:04.887Z,100779.66
2023-05-17T12:08:34.504Z,100779.81
2023-05-17T12:11:03.513Z,100758.19
2023-05-17T12:13:34.554Z,100776.88
2023-05-17T12:16:06.092Z,100775.09
2023-05-17T12:18:38.925Z,100760.69
2023-05-17T12:21:08.461Z,100779.16
2023-05-17T12:23:39.785Z,100777.47
2023-05-17T12:26:10.350Z,100797.78
2023-05-17T12:28:42.334Z,100756.06
2023-05-17T12:31:13.785Z,100788.88
2023-05-17T12:33:44.201Z,100778.88
2023-05-17T12:36:14.157Z,100800.44
2023-05-17T12:38:43.762Z,100777.22
2023-05-17T12:41:13.642Z,100769.69
2023-05-17T12:43:46.258Z,100756.06
2023-05-17T12:46:15.720Z,100767.16
2023-05-17T12:48:44.640Z,100766.31
2023-05-17T12:51:14.488Z,100789.22
2023-05-17T12:53:44.533Z,100767.63
2023-05-17T12:56:18.155Z,100763.59
2023-05-17T12:59:07.629Z,100763.53
2023-05-17T13:01:37.326Z,100770.81
2023-05-17T13:04:06.398Z,100778.16
2023-05-17T13:06:50.288Z,100778.34
2023-05-17T13:09:21.232Z,100791.28
2023-05-17T13:11:52.934Z,100770.94
2023-05-17T13:14:41.170Z,100782.34
2023-05-17T13:17:12.581Z,100777.56
2023-05-17T13:19:41.178Z,100765.16
2023-05-17T13:22:10.027Z,100785.09
2023-05-17T13:24:40.213Z,100690.06
2023-05-17T13:27:09.599Z,100783.28
2023-05-17T13:29:43.210Z,100781.44
2023-05-17T13:32:13.898Z,100779.31
2023-05-17T13:34:42.645Z,100782.94
2023-05-17T13:37:12.695Z,100768.91
2023-05-17T13:39:41.912Z,100778.31
2023-05-17T13:42:11.170Z,100758.13
2023-05-17T13:44:41.936Z,100773.16
2023-05-17T13:47:10.470Z,100786.16
2023-05-17T13:49:38.921Z,100792.59
2023-05-17T13:52:09.077Z,100777.63
2023-05-17T13:54:38.330Z,100767.16
2023-05-17T13:57:07.340Z,100775.50
2023-05-17T13:59:35.832Z,100779.28
2023-05-17T14:02:05.695Z,100779.28
2023-05-17T14:04:35.138Z,100776.25
2023-05-17T14:07:04.636Z,100774.94
2023-05-17T14:09:34.605Z,100773.88
2023-05-17T14:12:03.175Z,100776.41
2023-05-17T14:14:32.122Z,100778.72
2023-05-17T14:17:01.621Z,100767.84
2023-05-17T14:19:31.895Z,100767.84
2023-05-17T14:22:00.555Z,100777.38
2023-05-17T14:24:28.929Z,100788.75
2023-05-17T14:26:57.953Z,100787.00
2023-05-17T14:29:26.360Z,100778.69
2023-05-17T14:31:54.906Z,100780.63
2023-05-17T14:34:23.480Z,100785.00
2023-05-17T14:36:53.494Z,100777.09
2023-05-17T14:39:22.112Z,100772.63
2023-05-17T14:41:50.453Z,100770.94
2023-05-17T14:44:18.887Z,100769.28
2023-05-17T14:46:47.295Z,100769.78
2023-05-17T14:49:16.102Z,100757.09
2023-05-17T14:51:46.098Z,100783.00
2023-05-17T14:54:16.851Z,100779.63
2023-05-17T14:56:45.605Z,100780.91
2023-05-17T14:59:14.300Z,100778.00
2023-05-17T15:01:43.763Z,100793.13
2023-05-17T15:04:12.644Z,100800.25
2023-05-17T15:06:42.305Z,100803.63
2023-05-17T15:09:13.486Z,100800.75
2023-05-17T15:11:43.365Z,100809.53
2023-05-17T15:14:14.050Z,100806.59
2023-05-17T15:16:42.597Z,100808.47
2023-05-17T15:19:11.112Z,100814.97
2023-05-17T15:21:40.719Z,100816.25
2023-05-17T15:24:11.094Z,100823.56
2023-05-17T15:26:43.200Z,100818.31
2023-05-17T15:29:11.810Z,100820.84
2023-05-17T15:31:41.169Z,100828.56
2023-05-17T15:34:09.812Z,100833.38
2023-05-17T15:36:38.486Z,100833.59
2023-05-17T15:39:07.089Z,100829.19
2023-05-17T15:41:35.910Z,100843.59
2023-05-17T15:44:08.129Z,100850.22
2023-05-17T15:46:36.716Z,100853.13
2023-05-17T15:49:05.162Z,100854.78
2023-05-17T15:51:33.711Z,100858.13
2023-05-17T15:54:02.170Z,100868.75
2023-05-17T15:56:30.703Z,100861.63
2023-05-17T15:59:01.039Z,100865.34
2023-05-17T16:01:32.997Z,100872.44
2023-05-17T16:04:01.583Z,100874.69
2023-05-17T16:06:34.940Z,100879.03
2023-05-17T16:09:03.859Z,100886.53
2023-05-17T16:11:32.446Z,100880.06
2023-05-17T16:14:00.884Z,100882.53
2023-05-17T16:16:29.229Z,100890.47
2023-05-17T16:18:59.207Z,100893.19
2023-05-17T16:21:27.786Z,100896.72
2023-05-17T16:23:56.164Z,100887.53
2023-05-17T16:26:24.606Z,100897.91
2023-05-17T16:28:53.060Z,100895.97
2023-05-17T16:31:21.803Z,100885.13
2023-05-17T16:33:50.404Z,100895.41
2023-05-17T16:36:22.672Z,100897.72
2023-05-17T16:38:51.835Z,100887.72
2023-05-17T16:41:20.223Z,100903.75
2023-05-17T16:43:48.686Z,100900.91
2023-05-17T16:46:19.101Z,100915.50
2023-05-17T16:48:47.533Z,100910.44
2023-05-17T16:51:15.899Z,100904.94
2023-05-17T16:53:45.787Z,100909.09
2023-05-17T16:56:14.169Z,100914.31
2023-05-17T16:58:42.943Z,100910.75
2023-05-17T17:01:11.952Z,100921.22
2023-05-17T17:03:40.456Z,100923.09
2023-05-17T17:06:09.040Z,100926.44
2023-05-17T17:08:38.268Z,100927.81
2023-05-17T17:11:11.352Z,100929.19
2023-05-17T17:13:39.911Z,100941.84
2023-05-17T17:16:08.303Z,100943.44
2023-05-17T17:18:36.799Z,100949.66
2023-05-17T17:21:07.819Z,100945.97
2023-05-17T17:23:36.789Z,100950.38
2023-05-17T17:26:05.278Z,100959.81
2023-05-17T17:28:35.091Z,100950.41
2023-05-17T17:31:03.542Z,100959.09
2023-05-17T17:33:32.049Z,100959.84
2023-05-17T17:36:00.498Z,100957.72
2023-05-17T17:38:28.865Z,100964.19
2023-05-17T17:40:57.332Z,100966.97
2023-05-17T17:43:25.802Z,100958.78
2023-05-17T17:45:55.576Z,100968.09
2023-05-17T17:48:23.926Z,100975.31
2023-05-17T17:50:52.433Z,100977.72
2023-05-17T17:53:20.861Z,100988.44
2023-05-17T17:55:49.317Z,100989.66
2023-05-17T17:58:17.692Z,100989.00
2023-05-17T18:00:46.122Z,100992.53
2023-05-17T18:03:16.883Z,100990.38
2023-05-17T18:05:45.344Z,100994.50
2023-05-17T18:08:13.872Z,100993.16
2023-05-17T18:10:42.258Z,100995.22
2023-05-17T18:13:10.692Z,100990.84
2023-05-17T18:15:39.226Z,100996.25
2023-05-17T18:18:07.779Z,100993.06
2023-05-17T18:20:37.773Z,100998.34
2023-05-17T18:23:06.137Z,101001.06
2023-05-17T18:25:36.758Z,101002.94
2023-05-17T18:28:06.807Z,101000.28
2023-05-17T18:30:37.328Z,101005.25
2023-05-17T18:33:07.151Z,101004.97
2023-05-17T18:35:37.338Z,101010.25
2023-05-17T18:38:05.851Z,101014.50
2023-05-17T18:40:34.280Z,101021.09
2023-05-17T18:43:02.657Z,101025.00
2023-05-17T18:45:32.029Z,101024.75
2023-05-17T18:48:00.543Z,101023.06
2023-05-17T18:50:29.168Z,101027.63
2023-05-17T18:53:00.068Z,101029.00
2023-05-17T18:55:28.569Z,101023.28
2023-05-17T18:57:57.028Z,101024.50
2023-05-17T19:00:25.512Z,101029.22
2023-05-17T19:02:54.874Z,101030.59
2023-05-17T19:05:23.452Z,101029.63
2023-05-17T19:07:51.846Z,101033.00
2023-05-17T19:10:22.346Z,101027.78
2023-05-17T19:12:50.759Z,101028.34
2023-05-17T19:15:19.377Z,101040.69
2023-05-17T19:17:48.003Z,101032.94
2023-05-17T19:20:16.756Z,101033.59
2023-05-17T19:22:45.170Z,101035.63
2023-05-17T19:25:16.128Z,101035.78
2023-05-17T19:27:46.440Z,101040.34
2023-05-17T19:30:14.904Z,101039.00
2023-05-17T19:32:43.389Z,101037.50
2023-05-17T19:35:12.152Z,101045.94
2023-05-17T19:37:40.520Z,101033.88
2023-05-17T19:40:10.120Z,101044.69
2023-05-17T19:42:39.506Z,101043.88
2023-05-17T19:45:11.204Z,101049.44
2023-05-17T19:47:39.722Z,101051.47
2023-05-17T19:50:09.076Z,101048.44
2023-05-17T19:52:37.457Z,101058.94
2023-05-17T19:55:06.450Z,101057.59
2023-05-17T19:57:35.028Z,101063.53
2023-05-17T20:00:04.398Z,101066.06
2023-05-17T20:02:34.250Z,101064.72
2023-05-17T20:05:03.849Z,101067.75
2023-05-17T20:07:33.364Z,101066.63
2023-05-17T20:10:01.861Z,101075.91
2023-05-17T20:12:30.908Z,101076.91
2023-05-17T20:14:59.363Z,101071.69
2023-05-17T20:17:27.835Z,101075.22
2023-05-17T20:19:57.582Z,101078.44
2023-05-17T20:22:26.126Z,101072.88
2023-05-17T20:24:55.812Z,101079.63
2023-05-17T20:27:27.064Z,101080.78
2023-05-17T20:29:55.574Z,101082.00
2023-05-17T20:32:24.075Z,101077.94
2023-05-17T20:34:52.481Z,101083.19
2023-05-17T20:37:22.259Z,101078.63
2023-05-17T20:39:51.477Z,101087.03
2023-05-17T20:42:20.553Z,101076.94
2023-05-17T20:44:49.261Z,101081.81
2023-05-17T20:47:17.657Z,101080.97
2023-05-17T20:49:46.069Z,101081.81
2023-05-17T20:52:16.255Z,101080.97
2023-05-17T20:54:47.697Z,101081.28
2023-05-17T20:57:16.298Z,101083.16
2023-05-17T20:59:45.475Z,101087.34
2023-05-17T21:02:13.915Z,101084.50
2023-05-17T21:04:42.342Z,101091.06
2023-05-17T21:07:11.420Z,101090.91
2023-05-17T21:09:39.821Z,101099.66
2023-05-17T21:12:09.876Z,101097.81
2023-05-17T21:14:38.349Z,101106.06
2023-05-17T21:17:06.877Z,101112.63
2023-05-17T21:19:35.267Z,101106.38
2023-05-17T21:22:03.688Z,101113.63
2023-05-17T21:24:32.063Z,101118.34
2023-05-17T21:27:01.347Z,101114.81
2023-05-17T21:29:31.134Z,101109.75
2023-05-17T21:31:59.633Z,101113.28
2023-05-17T21:34:28.003Z,101107.22
2023-05-17T21:36:56.345Z,101105.22
2023-05-17T21:39:24.712Z,101111.78
2023-05-17T21:41:53.063Z,101102.34
2023-05-17T21:44:21.521Z,101103.19
2023-05-17T21:46:51.349Z,101111.28
2023-05-17T21:49:19.782Z,101109.06
2023-05-17T21:51:48.202Z,101107.22
2023-05-17T21:54:17.340Z,101112.28
2023-05-17T21:56:45.861Z,101116.47
2023-05-17T21:59:14.692Z,101102.28
2023-05-17T22:01:44.183Z,101109.03
2023-05-17T22:04:14.584Z,101112.59
2023-05-17T22:06:42.981Z,101113.91
2023-05-17T22:09:12.204Z,101112.72
2023-05-17T22:11:40.735Z,101109.72
2023-05-17T22:14:09.314Z,101106.16
2023-05-17T22:16:37.885Z,101107.50
2023-05-17T22:19:07.222Z,101110.69
2023-05-17T22:21:38.731Z,101105.44
2023-05-17T22:24:09.295Z,101111.44
2023-05-17T22:26:37.820Z,101068.78
2023-05-17T22:29:06.926Z,101110.69
2023-05-17T22:31:37.743Z,101107.94
2023-05-17T22:34:06.873Z,101107.94
2023-05-17T22:36:36.698Z,101109.00
2023-05-17T22:39:05.450Z,101100.94
2023-05-17T22:41:33.925Z,101104.47
2023-05-17T22:44:02.404Z,101103.31
2023-05-17T22:46:32.151Z,101105.81
2023-05-17T22:49:01.747Z,101101.28
2023-05-17T22:51:30.212Z,101099.28
2023-05-17T22:54:00.036Z,101099.28
2023-05-17T22:56:28.414Z,101098.75
2023-05-17T22:58:56.927Z,101106.84
2023-05-17T23:01:25.778Z,101101.28
2023-05-17T23:03:54.520Z,101091.34
2023-05-17T23:06:24.545Z,101105.78
2023-05-17T23:08:53.973Z,101096.38
2023-05-17T23:11:24.795Z,101093.53
2023-05-17T23:13:53.209Z,101100.28
2023-05-17T23:16:26.213Z,101102.66
2023-05-17T23:18:54.907Z,101093.59
2023-05-17T23:21:23.312Z,101096.28
2023-05-17T23:23:53.724Z,101087.84
2023-05-17T23:26:22.220Z,101097.06
2023-05-17T23:28:53.774Z,101098.25
2023-05-17T23:31:23.024Z,101096.22
2023-05-17T23:33:51.826Z,101095.38
2023-05-17T23:36:21.877Z,101102.47
2023-05-17T23:38:51.365Z,101097.25
2023-05-17T23:41:24.026Z,101100.78
2023-05-17T23:43:53.863Z,101096.91
2023-05-17T23:46:22.509Z,101094.38
2023-05-17T23:48:51.362Z,101090.69
2023-05-17T23:51:20.744Z,101092.84
2023-05-17T23:53:49.995Z,101091.34
2023-05-17T23:56:19.214Z,101087.81
2023-05-17T23:58:47.937Z,101077.53
